createdAt,value
2019-03-20T00:00:19.932Z,1.16
2019-03-20T00:02:48.917Z,1.21
2019-03-20T00:05:16.256Z,1.27
2019-03-20T00:07:43.310Z,1.35
2019-03-20T00:10:10.331Z,1.22
2019-03-20T00:12:38.455Z,0.84
2019-03-20T00:15:05.485Z,0.44
2019-03-20T00:17:32.843Z,0.16
2019-03-20T00:19:59.875Z,-0.01
2019-03-20T00:22:27.173Z,-0.12
2019-03-20T00:24:54.466Z,-0.22
2019-03-20T00:27:21.760Z,-0.26
2019-03-20T00:29:48.869Z,-0.35
2019-03-20T00:32:15.915Z,-0.40
2019-03-20T00:34:43.196Z,-0.45
2019-03-20T00:37:10.313Z,-0.51
2019-03-20T00:39:37.422Z,-0.57
2019-03-20T00:42:04.727Z,-0.64
2019-03-20T00:44:32.009Z,-0.68
2019-03-20T00:46:59.308Z,-0.70
2019-03-20T00:49:26.663Z,-0.75
2019-03-20T00:51:53.951Z,-0.76
2019-03-20T00:54:20.985Z,-0.72
2019-03-20T00:56:48.030Z,-0.71
2019-03-20T00:59:15.061Z,-0.71
2019-03-20T01:01:42.364Z,-0.69
2019-03-20T01:04:09.399Z,-0.61
2019-03-20T01:06:36.445Z,-0.54
2019-03-20T01:09:03.821Z,-0.50
2019-03-20T01:11:31.932Z,-0.41
2019-03-20T01:13:59.209Z,-0.32
2019-03-20T01:16:26.264Z,-0.27
2019-03-20T01:18:53.545Z,-0.26
2019-03-20T01:21:21.563Z,-0.26
2019-03-20T01:23:48.594Z,-0.31
2019-03-20T01:26:15.636Z,-0.38
2019-03-20T01:28:42.671Z,-0.42
2019-03-20T01:31:09.704Z,-0.45
2019-03-20T01:33:36.754Z,-0.47
2019-03-20T01:36:04.032Z,-0.51
2019-03-20T01:38:31.103Z,-0.54
2019-03-20T01:40:58.134Z,-0.53
2019-03-20T01:43:25.175Z,-0.53
2019-03-20T01:45:52.469Z,-0.54
2019-03-20T01:48:19.516Z,-0.53
2019-03-20T01:50:46.548Z,-0.53
2019-03-20T01:53:13.852Z,-0.50
2019-03-20T01:55:41.131Z,-0.48
2019-03-20T01:58:08.426Z,-0.48
2019-03-20T02:00:35.697Z,-0.53
2019-03-20T02:03:03.008Z,-0.60
2019-03-20T02:05:35.950Z,-0.70
2019-03-20T02:07:59.092Z,-0.78
2019-03-20T02:10:26.381Z,-0.87
2019-03-20T02:12:53.429Z,-0.90
2019-03-20T02:15:20.704Z,-0.91
2019-03-20T02:17:47.995Z,-0.89
2019-03-20T02:20:15.289Z,-0.87
2019-03-20T02:22:42.409Z,-0.87
2019-03-20T02:25:09.439Z,-0.92
2019-03-20T02:27:36.722Z,-0.98
2019-03-20T02:30:04.027Z,-1.06
2019-03-20T02:32:32.407Z,-1.11
2019-03-20T02:34:59.686Z,-1.17
2019-03-20T02:37:26.730Z,-1.20
2019-03-20T02:39:53.779Z,-1.22
2019-03-20T02:42:20.813Z,-1.24
2019-03-20T02:44:47.926Z,-1.22
2019-03-20T02:47:14.987Z,-1.25
2019-03-20T02:49:42.255Z,-1.27
2019-03-20T02:52:09.286Z,-1.28
2019-03-20T02:54:36.575Z,-1.28
2019-03-20T02:57:03.615Z,-1.26
2019-03-20T02:59:30.696Z,-1.24
2019-03-20T03:01:58.926Z,-1.25
2019-03-20T03:04:25.997Z,-1.26
2019-03-20T03:06:53.020Z,-1.26
2019-03-20T03:09:20.345Z,-1.25
2019-03-20T03:11:47.641Z,-1.23
2019-03-20T03:14:15.024Z,-1.23
2019-03-20T03:16:42.381Z,-1.24
2019-03-20T03:19:09.438Z,-1.25
2019-03-20T03:21:36.735Z,-1.27
2019-03-20T03:24:03.791Z,-1.25
2019-03-20T03:26:31.183Z,-1.25
2019-03-20T03:28:58.560Z,-1.32
2019-03-20T03:31:25.904Z,-1.37
2019-03-20T03:33:53.251Z,-1.41
2019-03-20T03:36:21.905Z,-1.49
2019-03-20T03:38:50.623Z,-1.58
2019-03-20T03:41:17.973Z,-1.65
2019-03-20T03:43:45.028Z,-1.62
2019-03-20T03:46:12.070Z,-1.56
2019-03-20T03:48:39.424Z,-1.55
2019-03-20T03:51:06.467Z,-1.53
2019-03-20T03:53:33.602Z,-1.46
2019-03-20T03:56:00.884Z,-1.42
2019-03-20T03:58:28.246Z,-1.45
2019-03-20T04:00:55.514Z,-1.44
2019-03-20T04:03:22.865Z,-1.36
2019-03-20T04:05:49.905Z,-1.25
2019-03-20T04:08:17.241Z,-1.16
2019-03-20T04:10:44.298Z,-1.07
2019-03-20T04:13:11.332Z,-0.97
2019-03-20T04:15:38.721Z,-0.95
2019-03-20T04:18:06.072Z,-0.93
2019-03-20T04:20:33.409Z,-0.96
2019-03-20T04:23:00.792Z,-0.98
2019-03-20T04:25:28.135Z,-1.09
2019-03-20T04:27:55.432Z,-1.22
2019-03-20T04:30:22.471Z,-1.24
2019-03-20T04:32:49.503Z,-1.17
2019-03-20T04:35:16.840Z,-1.10
2019-03-20T04:37:44.203Z,-1.14
2019-03-20T04:40:12.684Z,-1.24
2019-03-20T04:42:40.045Z,-1.36
2019-03-20T04:45:08.216Z,-1.41
2019-03-20T04:47:35.549Z,-1.36
2019-03-20T04:50:02.899Z,-1.28
2019-03-20T04:52:29.943Z,-1.25
2019-03-20T04:54:56.995Z,-1.29
2019-03-20T04:57:24.361Z,-1.39
2019-03-20T04:59:51.401Z,-1.49
2019-03-20T05:02:18.752Z,-1.50
2019-03-20T05:04:46.110Z,-1.46
2019-03-20T05:07:13.150Z,-1.42
2019-03-20T05:09:40.207Z,-1.41
2019-03-20T05:12:07.557Z,-1.36
2019-03-20T05:14:34.611Z,-1.26
2019-03-20T05:17:01.681Z,-1.13
2019-03-20T05:19:28.909Z,-1.03
2019-03-20T05:21:55.964Z,-0.99
2019-03-20T05:24:23.013Z,-1.05
2019-03-20T05:26:50.101Z,-1.13
2019-03-20T05:29:17.160Z,-1.19
2019-03-20T05:31:45.282Z,-1.21
2019-03-20T05:34:12.319Z,-1.23
2019-03-20T05:36:39.693Z,-1.23
2019-03-20T05:39:06.739Z,-1.21
2019-03-20T05:41:33.791Z,-1.11
2019-03-20T05:44:02.282Z,-0.90
2019-03-20T05:46:29.341Z,-0.87
2019-03-20T05:48:56.380Z,-0.86
2019-03-20T05:51:23.441Z,-0.71
2019-03-20T05:53:50.482Z,-0.16
2019-03-20T05:56:17.803Z,0.63
2019-03-20T05:58:45.154Z,0.83
2019-03-20T06:01:12.512Z,0.85
2019-03-20T06:03:39.543Z,1.11
2019-03-20T06:06:06.590Z,1.45
2019-03-20T06:08:34.607Z,2.44
2019-03-20T06:11:01.739Z,3.89
2019-03-20T06:13:28.781Z,5.25
2019-03-20T06:15:56.124Z,6.39
2019-03-20T06:18:23.211Z,7.39
2019-03-20T06:20:50.531Z,8.32
2019-03-20T06:23:17.568Z,9.26
2019-03-20T06:25:44.995Z,10.10
2019-03-20T06:28:11.969Z,10.86
2019-03-20T06:30:39.353Z,11.50
2019-03-20T06:33:06.411Z,12.03
2019-03-20T06:35:33.744Z,12.64
2019-03-20T06:38:00.808Z,13.38
2019-03-20T06:40:27.854Z,13.74
2019-03-20T06:42:55.495Z,14.13
2019-03-20T06:45:22.974Z,14.51
2019-03-20T06:47:50.332Z,14.95
2019-03-20T06:50:17.373Z,15.36
2019-03-20T06:52:44.713Z,15.74
2019-03-20T06:55:11.767Z,16.13
2019-03-20T06:57:38.811Z,16.48
2019-03-20T07:00:06.184Z,16.83
2019-03-20T07:02:33.520Z,17.09
2019-03-20T07:05:00.859Z,17.36
2019-03-20T07:07:27.921Z,17.52
2019-03-20T07:09:54.958Z,17.78
2019-03-20T07:12:22.344Z,17.93
2019-03-20T07:14:49.459Z,18.04
2019-03-20T07:17:16.832Z,17.86
2019-03-20T07:19:44.187Z,17.38
2019-03-20T07:22:11.545Z,17.10
2019-03-20T07:24:38.598Z,17.11
2019-03-20T07:27:05.653Z,17.45
2019-03-20T07:29:32.995Z,17.79
2019-03-20T07:32:00.056Z,18.05
2019-03-20T07:34:27.417Z,18.19
2019-03-20T07:36:54.751Z,18.43
2019-03-20T07:39:22.122Z,18.63
2019-03-20T07:41:49.174Z,18.49
2019-03-20T07:44:16.210Z,18.54
2019-03-20T07:46:43.573Z,18.88
2019-03-20T07:49:10.619Z,19.22
2019-03-20T07:51:37.958Z,19.54
2019-03-20T07:54:05.010Z,19.64
2019-03-20T07:56:32.396Z,19.61
2019-03-20T07:58:59.451Z,18.99
2019-03-20T08:01:26.770Z,18.58
2019-03-20T08:03:53.819Z,18.49
2019-03-20T08:06:22.216Z,18.43
2019-03-20T08:08:49.652Z,18.11
2019-03-20T08:11:17.008Z,17.45
2019-03-20T08:13:44.057Z,17.25
2019-03-20T08:16:12.167Z,17.37
2019-03-20T08:18:39.231Z,16.68
2019-03-20T08:21:06.546Z,16.60
2019-03-20T08:23:33.885Z,16.39
2019-03-20T08:26:00.928Z,15.81
2019-03-20T08:28:27.977Z,16.11
2019-03-20T08:30:55.335Z,16.52
2019-03-20T08:33:22.628Z,16.40
2019-03-20T08:35:49.960Z,16.47
2019-03-20T08:38:18.830Z,16.49
2019-03-20T08:40:46.413Z,16.97
2019-03-20T08:43:13.877Z,17.15
2019-03-20T08:45:40.952Z,17.14
2019-03-20T08:48:08.410Z,16.85
2019-03-20T08:50:35.481Z,17.21
2019-03-20T08:53:02.529Z,18.01
2019-03-20T08:55:29.965Z,17.69
2019-03-20T09:00:42.569Z,16.44
2019-03-20T09:03:09.999Z,16.71
2019-03-20T09:05:37.291Z,16.98
2019-03-20T09:08:04.379Z,16.31
2019-03-20T09:10:31.657Z,15.88
2019-03-20T09:12:59.036Z,16.05
2019-03-20T09:15:26.392Z,17.20
2019-03-20T09:17:54.763Z,17.64
2019-03-20T09:20:22.038Z,18.42
2019-03-20T09:22:49.081Z,19.39
2019-03-20T09:25:16.395Z,19.93
2019-03-20T09:27:43.681Z,20.41
2019-03-20T09:30:11.002Z,20.93
2019-03-20T09:32:38.044Z,21.40
2019-03-20T09:35:07.037Z,21.89
2019-03-20T09:37:35.628Z,22.09
2019-03-20T09:40:02.988Z,20.53
2019-03-20T09:42:30.029Z,20.15
2019-03-20T09:44:57.392Z,20.22
2019-03-20T09:47:24.437Z,19.11
2019-03-20T09:49:51.790Z,17.75
2019-03-20T09:52:19.073Z,16.78
2019-03-20T09:54:46.417Z,16.49
2019-03-20T09:57:13.526Z,16.46
2019-03-20T09:59:40.578Z,17.22
2019-03-20T10:02:07.952Z,18.40
2019-03-20T10:04:35.306Z,17.85
2019-03-20T10:07:02.661Z,18.45
2019-03-20T10:09:29.725Z,19.43
2019-03-20T10:11:57.586Z,19.91
2019-03-20T10:14:25.089Z,20.60
2019-03-20T10:16:52.393Z,21.29
2019-03-20T10:19:19.487Z,21.26
2019-03-20T10:21:46.793Z,20.45
2019-03-20T10:24:14.153Z,18.92
2019-03-20T10:26:41.196Z,17.51
2019-03-20T10:29:08.263Z,17.00
2019-03-20T10:31:36.377Z,17.89
2019-03-20T10:34:03.794Z,19.27
2019-03-20T10:36:31.089Z,20.27
2019-03-20T10:39:06.426Z,21.33
2019-03-20T10:41:27.252Z,22.08
2019-03-20T10:43:55.309Z,22.56
2019-03-20T10:46:22.588Z,23.05
2019-03-20T10:48:49.708Z,23.14
2019-03-20T10:51:16.813Z,22.06
2019-03-20T10:53:44.180Z,22.00
2019-03-20T10:56:11.638Z,22.63
2019-03-20T10:58:39.138Z,22.87
2019-03-20T11:01:06.552Z,22.98
2019-03-20T11:03:33.810Z,22.55
2019-03-20T11:06:01.274Z,23.08
2019-03-20T11:08:28.351Z,22.16
2019-03-20T11:10:55.831Z,20.73
2019-03-20T11:13:22.907Z,19.93
2019-03-20T11:15:50.277Z,19.86
2019-03-20T11:18:17.631Z,18.85
2019-03-20T11:20:44.725Z,18.11
2019-03-20T11:23:12.056Z,17.70
2019-03-20T11:25:39.145Z,17.63
2019-03-20T11:28:06.536Z,18.70
2019-03-20T11:30:33.995Z,18.41
2019-03-20T11:33:01.349Z,18.02
2019-03-20T11:35:28.812Z,19.23
2019-03-20T11:37:55.890Z,20.34
2019-03-20T11:40:23.317Z,19.61
2019-03-20T11:42:50.389Z,20.12
2019-03-20T11:45:17.825Z,20.72
2019-03-20T11:47:45.279Z,20.43
2019-03-20T11:50:12.363Z,19.28
2019-03-20T11:52:39.442Z,20.30
2019-03-20T11:55:06.541Z,20.68
2019-03-20T11:57:33.985Z,20.34
2019-03-20T12:00:01.437Z,19.47
2019-03-20T12:02:29.896Z,19.03
2019-03-20T12:04:57.278Z,18.53
2019-03-20T12:07:24.470Z,20.43
2019-03-20T12:09:51.558Z,21.35
2019-03-20T12:12:18.635Z,22.35
2019-03-20T12:14:46.080Z,23.25
2019-03-20T12:17:13.157Z,22.13
2019-03-20T12:19:44.923Z,20.04
2019-03-20T12:22:09.386Z,19.10
2019-03-20T12:24:36.834Z,18.01
2019-03-20T12:27:14.517Z,18.10
2019-03-20T12:29:33.387Z,17.87
2019-03-20T12:32:00.478Z,18.64
2019-03-20T12:34:28.624Z,19.72
2019-03-20T12:36:56.745Z,20.92
2019-03-20T12:39:23.836Z,20.36
2019-03-20T12:41:51.291Z,20.75
2019-03-20T12:44:18.374Z,18.45
2019-03-20T12:46:45.538Z,18.58
2019-03-20T12:49:12.951Z,17.95
2019-03-20T12:51:40.032Z,18.60
2019-03-20T12:54:07.118Z,19.39
2019-03-20T12:56:34.229Z,20.74
2019-03-20T12:59:01.285Z,21.55
2019-03-20T13:01:28.383Z,21.71
2019-03-20T13:03:55.741Z,22.10
2019-03-20T13:06:22.897Z,21.29
2019-03-20T13:08:50.426Z,21.31
2019-03-20T13:11:17.469Z,21.30
2019-03-20T13:13:44.856Z,20.50
2019-03-20T13:16:13.019Z,20.45
2019-03-20T13:18:40.107Z,21.41
2019-03-20T13:21:07.537Z,20.35
2019-03-20T13:23:34.995Z,19.27
2019-03-20T13:26:02.090Z,17.74
2019-03-20T13:28:29.167Z,16.37
2019-03-20T13:30:56.263Z,15.30
2019-03-20T13:33:25.991Z,14.64
2019-03-20T13:35:53.040Z,14.21
2019-03-20T13:38:20.125Z,13.33
2019-03-20T13:40:47.503Z,12.03
2019-03-20T13:43:14.689Z,11.55
2019-03-20T13:45:42.109Z,11.06
2019-03-20T13:48:09.467Z,10.75
2019-03-20T13:50:36.924Z,10.42
2019-03-20T13:53:04.010Z,10.34
2019-03-20T13:55:31.097Z,10.33
2019-03-20T13:57:58.478Z,10.45
2019-03-20T14:00:25.555Z,10.52
2019-03-20T14:02:53.016Z,10.58
2019-03-20T14:05:20.165Z,10.54
2019-03-20T14:07:47.515Z,10.41
2019-03-20T14:10:24.541Z,10.16
2019-03-20T14:12:43.733Z,9.96
2019-03-20T14:15:10.809Z,9.93
2019-03-20T14:17:38.246Z,10.03
2019-03-20T14:20:05.326Z,10.05
2019-03-20T14:22:32.411Z,9.98
2019-03-20T14:24:59.492Z,9.92
2019-03-20T14:27:26.575Z,9.88
2019-03-20T14:29:53.650Z,9.84
2019-03-20T14:32:21.703Z,9.86
2019-03-20T14:34:48.781Z,9.74
2019-03-20T14:37:16.132Z,9.72
2019-03-20T14:39:43.518Z,9.66
2019-03-20T14:42:10.972Z,9.69
2019-03-20T14:44:38.428Z,9.74
2019-03-20T14:47:05.885Z,9.62
2019-03-20T14:49:32.956Z,9.57
2019-03-20T14:52:00.328Z,9.56
2019-03-20T14:54:27.748Z,9.48
2019-03-20T14:56:54.836Z,9.43
2019-03-20T14:59:22.252Z,9.50
2019-03-20T15:01:49.344Z,9.57
2019-03-20T15:04:16.416Z,9.52
2019-03-20T15:06:43.502Z,9.47
2019-03-20T15:09:10.574Z,9.43
2019-03-20T15:11:38.032Z,9.47
2019-03-20T15:14:05.489Z,9.50
2019-03-20T15:16:33.940Z,9.42
2019-03-20T15:19:01.333Z,9.36
2019-03-20T15:21:28.505Z,9.38
2019-03-20T15:23:55.909Z,9.33
2019-03-20T15:26:23.101Z,9.28
2019-03-20T15:28:50.157Z,9.23
2019-03-20T15:31:17.592Z,9.18
2019-03-20T15:33:44.687Z,9.19
2019-03-20T15:36:12.092Z,9.15
2019-03-20T15:38:39.527Z,9.13
2019-03-20T15:41:06.596Z,9.11
2019-03-20T15:43:34.056Z,9.12
2019-03-20T15:46:01.131Z,9.14
2019-03-20T15:48:29.192Z,9.13
2019-03-20T15:50:56.611Z,9.07
2019-03-20T15:53:24.065Z,9.04
2019-03-20T15:55:51.422Z,9.02
2019-03-20T15:58:18.503Z,8.99
2019-03-20T16:00:45.927Z,8.96
2019-03-20T16:03:13.389Z,8.97
2019-03-20T16:05:40.736Z,8.93
2019-03-20T16:08:08.092Z,8.88
2019-03-20T16:10:35.448Z,8.86
2019-03-20T16:13:02.932Z,8.83
2019-03-20T16:15:30.265Z,8.83
2019-03-20T16:17:57.357Z,8.79
2019-03-20T16:20:24.765Z,8.77
2019-03-20T16:22:52.219Z,8.73
2019-03-20T16:25:19.296Z,8.68
2019-03-20T16:27:46.402Z,8.65
2019-03-20T16:32:44.032Z,8.54
2019-03-20T16:35:15.874Z,8.53
2019-03-20T16:37:43.258Z,8.46
2019-03-20T16:40:10.612Z,8.39
2019-03-20T16:42:37.742Z,8.36
2019-03-20T16:45:04.953Z,8.30
2019-03-20T16:47:32.057Z,8.26
2019-03-20T16:49:59.151Z,8.27
2019-03-20T16:52:26.298Z,8.25
2019-03-20T16:54:53.385Z,8.17
2019-03-20T16:57:21.859Z,8.02
2019-03-20T16:59:49.061Z,7.87
2019-03-20T17:02:16.153Z,7.74
2019-03-20T17:07:12.360Z,7.57
2019-03-20T17:09:53.624Z,7.45
2019-03-20T17:14:59.217Z,7.20
2019-03-20T17:17:30.752Z,7.09
2019-03-20T17:19:58.102Z,7.00
2019-03-20T17:22:29.410Z,6.91
2019-03-20T17:30:27.885Z,6.61
2019-03-20T17:32:59.566Z,6.49
2019-03-20T17:38:15.788Z,6.27
2019-03-20T17:40:55.508Z,6.19
2019-03-20T17:46:06.753Z,5.98
2019-03-20T17:48:33.898Z,5.93
2019-03-20T17:51:00.992Z,5.88
2019-03-20T17:53:28.233Z,5.83
2019-03-20T17:58:38.776Z,5.76
2019-03-20T18:01:11.024Z,5.70
2019-03-20T18:03:40.484Z,5.66
2019-03-20T18:06:07.805Z,5.64
2019-03-20T18:08:50.247Z,5.63
2019-03-20T18:11:29.439Z,5.61
2019-03-20T18:16:48.624Z,5.62
2019-03-20T18:19:29.229Z,5.62
2019-03-20T18:21:58.791Z,5.58
2019-03-20T18:27:17.276Z,5.48
2019-03-20T18:29:46.888Z,5.43
2019-03-20T18:32:14.202Z,5.45
2019-03-20T18:34:50.698Z,5.49
2019-03-20T18:37:18.049Z,5.48
2019-03-20T18:39:54.423Z,5.46
2019-03-20T18:42:25.056Z,5.44
2019-03-20T18:44:59.284Z,5.51
2019-03-20T18:47:26.620Z,5.58
2019-03-20T18:49:54.755Z,5.54
2019-03-20T18:54:56.362Z,5.37
2019-03-20T18:57:24.943Z,5.36
2019-03-20T19:02:26.235Z,5.31
2019-03-20T19:04:55.442Z,5.35
2019-03-20T19:07:26.788Z,5.28
2019-03-20T19:09:54.065Z,5.24
2019-03-20T19:12:34.412Z,5.15
2019-03-20T19:15:01.734Z,5.09
2019-03-20T19:17:32.061Z,5.04
2019-03-20T19:20:00.128Z,5.02
2019-03-20T19:22:35.616Z,4.94
2019-03-20T19:25:03.872Z,4.83
2019-03-20T19:30:19.154Z,4.67
2019-03-20T19:32:54.377Z,4.65
2019-03-20T19:35:21.646Z,4.68
2019-03-20T19:38:00.295Z,4.70
2019-03-20T19:40:32.551Z,4.69
2019-03-20T19:43:16.433Z,4.67
2019-03-20T19:45:45.761Z,4.68
2019-03-20T19:48:22.031Z,4.66
2019-03-20T19:50:50.333Z,4.59
2019-03-20T19:56:21.773Z,4.62
2019-03-20T19:59:04.485Z,4.73
2019-03-20T20:01:32.722Z,4.75
2019-03-20T20:04:12.818Z,4.76
2019-03-20T20:06:42.217Z,4.76
2019-03-20T20:09:19.799Z,4.74
2019-03-20T20:14:24.068Z,4.55
2019-03-20T20:16:55.421Z,4.44
2019-03-20T20:19:34.074Z,4.42
2019-03-20T20:22:06.615Z,4.41
2019-03-20T20:24:34.773Z,4.31
2019-03-20T20:29:35.037Z,4.15
2019-03-20T20:32:02.542Z,4.16
2019-03-20T20:34:29.771Z,4.19
2019-03-20T20:37:02.213Z,4.23
2019-03-20T20:39:33.546Z,4.31
2019-03-20T20:42:02.761Z,4.37
2019-03-20T20:44:35.289Z,4.37
2019-03-20T20:49:58.827Z,4.34
2019-03-20T20:52:25.881Z,4.43
2019-03-20T20:54:54.130Z,4.44
2019-03-20T20:57:21.398Z,4.40
2019-03-20T20:59:49.330Z,4.32
2019-03-20T21:04:51.763Z,4.22
2019-03-20T21:07:19.044Z,4.20
2019-03-20T21:09:58.735Z,4.19
2019-03-20T21:12:26.016Z,4.15
2019-03-20T21:15:03.446Z,4.20
2019-03-20T21:17:35.934Z,4.22
2019-03-20T21:20:03.816Z,4.19
2019-03-20T21:22:35.621Z,4.25
2019-03-20T21:30:36.279Z,4.14
2019-03-20T21:33:03.539Z,3.86
2019-03-20T21:35:49.694Z,3.70
2019-03-20T21:46:30.137Z,2.95
2019-03-20T21:48:57.461Z,2.82
2019-03-20T21:51:24.904Z,2.75
2019-03-20T21:53:54.376Z,2.71
2019-03-20T21:56:21.611Z,2.65
2019-03-20T21:58:49.225Z,2.61
2019-03-20T22:01:16.917Z,2.56
2019-03-20T22:03:44.042Z,2.50
2019-03-20T22:06:13.030Z,2.46
2019-03-20T22:08:45.040Z,2.40
2019-03-20T22:11:12.966Z,2.37
2019-03-20T22:13:42.573Z,2.35
2019-03-20T22:16:10.573Z,2.28
2019-03-20T22:18:37.899Z,2.25
2019-03-20T22:21:10.393Z,2.24
2019-03-20T22:23:37.929Z,2.24
2019-03-20T22:26:17.984Z,2.17
2019-03-20T22:28:45.338Z,2.10
2019-03-20T22:31:12.376Z,1.95
2019-03-20T22:33:39.591Z,1.85
2019-03-20T22:36:06.890Z,1.79
2019-03-20T22:38:34.251Z,1.73
2019-03-20T22:41:11.555Z,1.70
2019-03-20T22:43:38.892Z,1.65
2019-03-20T22:46:06.247Z,1.62
2019-03-20T22:48:33.298Z,1.61
2019-03-20T22:51:00.669Z,1.60
2019-03-20T22:53:29.900Z,1.61
2019-03-20T22:55:56.933Z,1.64
2019-03-20T22:58:24.252Z,1.64
2019-03-20T23:00:51.626Z,1.65
2019-03-20T23:03:20.598Z,1.70
2019-03-20T23:05:47.704Z,1.74
2019-03-20T23:08:18.539Z,1.78
2019-03-20T23:10:45.947Z,1.79
2019-03-20T23:13:18.801Z,1.77
2019-03-20T23:15:42.338Z,1.73
2019-03-20T23:18:09.586Z,1.70
2019-03-20T23:20:36.897Z,1.66
2019-03-20T23:23:04.253Z,1.63
2019-03-20T23:25:31.730Z,1.56
2019-03-20T23:27:59.847Z,1.50
2019-03-20T23:30:26.885Z,1.44
2019-03-20T23:32:54.305Z,1.40
2019-03-20T23:35:21.416Z,1.34
2019-03-20T23:37:48.624Z,1.26
2019-03-20T23:40:15.946Z,1.20
2019-03-20T23:42:43.521Z,1.12
2019-03-20T23:45:10.885Z,1.06
2019-03-20T23:47:39.095Z,0.96
2019-03-20T23:50:06.383Z,0.87
2019-03-20T23:52:33.669Z,0.79
2019-03-20T23:55:01.000Z,0.67
2019-03-20T23:57:28.563Z,0.59
2019-03-20T23:59:55.606Z,0.55
